sensor_id;sensor_type;location;lat;lon;timestamp;P1;durP1;ratioP1;P2;durP2;ratioP2
18818;SDS011;9537;45.594;9.294;2023-07-13T00:00:37;5.22;;;2.25;;
18818;SDS011;9537;45.594;9.294;2023-07-13T00:01:40;4.90;;;2.22;;
18818;SDS011;9537;45.594;9.294;2023-07-13T00:02:41;3.30;;;2.17;;
18818;SDS011;9537;45.594;9.294;2023-07-13T00:03:43;2.40;;;2.15;;
18818;SDS011;9537;45.594;9.294;2023-07-13T00:04:44;3.75;;;2.25;;
18818;SDS011;9537;45.594;9.294;2023-07-13T00:05:46;6.30;;;2.30;;
18818;SDS011;9537;45.594;9.294;2023-07-13T00:06:49;4.53;;;2.33;;
18818;SDS011;9537;45.594;9.294;2023-07-13T00:07:51;5.82;;;2.10;;
18818;SDS011;9537;45.594;9.294;2023-07-13T00:08:52;3.65;;;2.20;;
18818;SDS011;9537;45.594;9.294;2023-07-13T00:09:54;7.28;;;2.25;;
18818;SDS011;9537;45.594;9.294;2023-07-13T00:10:55;5.15;;;2.30;;
18818;SDS011;9537;45.594;9.294;2023-07-13T00:11:57;4.25;;;2.30;;
18818;SDS011;9537;45.594;9.294;2023-07-13T00:12:58;5.15;;;2.60;;
18818;SDS011;9537;45.594;9.294;2023-07-13T00:13:59;4.20;;;2.20;;
18818;SDS011;9537;45.594;9.294;2023-07-13T00:15:03;3.88;;;2.40;;
18818;SDS011;9537;45.594;9.294;2023-07-13T00:16:06;5.65;;;2.60;;
18818;SDS011;9537;45.594;9.294;2023-07-13T00:17:08;3.28;;;2.20;;
18818;SDS011;9537;45.594;9.294;2023-07-13T00:18:09;4.88;;;2.42;;
18818;SDS011;9537;45.594;9.294;2023-07-13T00:19:11;2.60;;;2.08;;
18818;SDS011;9537;45.594;9.294;2023-07-13T00:20:12;7.47;;;2.25;;
18818;SDS011;9537;45.594;9.294;2023-07-13T00:21:14;5.53;;;2.30;;
18818;SDS011;9537;45.594;9.294;2023-07-13T00:22:16;4.28;;;2.30;;
18818;SDS011;9537;45.594;9.294;2023-07-13T00:23:18;3.72;;;2.33;;
18818;SDS011;9537;45.594;9.294;2023-07-13T00:24:19;3.95;;;2.45;;
18818;SDS011;9537;45.594;9.294;2023-07-13T00:25:23;6.47;;;2.58;;
18818;SDS011;9537;45.594;9.294;2023-07-13T00:26:28;3.60;;;1.83;;
18818;SDS011;9537;45.594;9.294;2023-07-13T00:27:30;3.83;;;2.05;;
18818;SDS011;9537;45.594;9.294;2023-07-13T00:28:32;5.13;;;2.40;;
18818;SDS011;9537;45.594;9.294;2023-07-13T00:29:34;6.40;;;3.00;;
18818;SDS011;9537;45.594;9.294;2023-07-13T00:30:35;5.68;;;2.17;;
18818;SDS011;9537;45.594;9.294;2023-07-13T00:31:37;7.22;;;2.50;;
18818;SDS011;9537;45.594;9.294;2023-07-13T00:32:37;4.35;;;2.25;;
18818;SDS011;9537;45.594;9.294;2023-07-13T00:33:39;3.72;;;2.22;;
18818;SDS011;9537;45.594;9.294;2023-07-13T00:34:40;2.92;;;2.00;;
18818;SDS011;9537;45.594;9.294;2023-07-13T00:35:42;3.20;;;2.13;;
18818;SDS011;9537;45.594;9.294;2023-07-13T00:36:43;5.00;;;2.33;;
18818;SDS011;9537;45.594;9.294;2023-07-13T00:37:46;4.00;;;2.60;;
18818;SDS011;9537;45.594;9.294;2023-07-13T00:38:47;4.70;;;2.30;;
18818;SDS011;9537;45.594;9.294;2023-07-13T00:39:49;4.35;;;2.40;;
18818;SDS011;9537;45.594;9.294;2023-07-13T00:40:50;4.68;;;2.50;;
18818;SDS011;9537;45.594;9.294;2023-07-13T00:41:52;3.65;;;2.45;;
18818;SDS011;9537;45.594;9.294;2023-07-13T00:42:53;3.58;;;2.00;;
18818;SDS011;9537;45.594;9.294;2023-07-13T00:43:54;4.28;;;2.00;;
18818;SDS011;9537;45.594;9.294;2023-07-13T00:45:02;3.15;;;1.80;;
18818;SDS011;9537;45.594;9.294;2023-07-13T00:46:13;3.10;;;2.15;;
18818;SDS011;9537;45.594;9.294;2023-07-13T00:47:16;4.40;;;2.22;;
18818;SDS011;9537;45.594;9.294;2023-07-13T00:48:19;4.50;;;2.25;;
18818;SDS011;9537;45.594;9.294;2023-07-13T00:49:22;7.68;;;2.28;;
18818;SDS011;9537;45.594;9.294;2023-07-13T00:50:26;4.35;;;2.40;;
18818;SDS011;9537;45.594;9.294;2023-07-13T00:51:29;6.28;;;2.70;;
18818;SDS011;9537;45.594;9.294;2023-07-13T00:52:32;8.55;;;2.30;;
18818;SDS011;9537;45.594;9.294;2023-07-13T00:53:37;6.90;;;2.60;;
18818;SDS011;9537;45.594;9.294;2023-07-13T00:54:39;5.57;;;2.40;;
18818;SDS011;9537;45.594;9.294;2023-07-13T00:55:44;4.50;;;2.50;;
18818;SDS011;9537;45.594;9.294;2023-07-13T00:56:47;3.97;;;2.22;;
18818;SDS011;9537;45.594;9.294;2023-07-13T00:57:51;3.55;;;2.30;;
18818;SDS011;9537;45.594;9.294;2023-07-13T00:58:52;4.05;;;2.10;;
18818;SDS011;9537;45.594;9.294;2023-07-13T00:59:56;5.82;;;2.60;;
18818;SDS011;9537;45.594;9.294;2023-07-13T01:00:59;3.58;;;2.40;;
18818;SDS011;9537;45.594;9.294;2023-07-13T01:02:01;3.22;;;2.40;;
18818;SDS011;9537;45.594;9.294;2023-07-13T01:03:04;5.13;;;2.38;;
18818;SDS011;9537;45.594;9.294;2023-07-13T01:04:06;5.60;;;2.50;;
18818;SDS011;9537;45.594;9.294;2023-07-13T01:05:08;6.13;;;2.38;;
18818;SDS011;9537;45.594;9.294;2023-07-13T01:06:11;4.25;;;2.95;;
18818;SDS011;9537;45.594;9.294;2023-07-13T01:07:11;4.38;;;2.47;;
18818;SDS011;9537;45.594;9.294;2023-07-13T01:08:14;3.15;;;2.67;;
18818;SDS011;9537;45.594;9.294;2023-07-13T01:09:16;4.07;;;2.47;;
18818;SDS011;9537;45.594;9.294;2023-07-13T01:10:20;5.20;;;2.42;;
18818;SDS011;9537;45.594;9.294;2023-07-13T01:11:22;3.67;;;2.47;;
18818;SDS011;9537;45.594;9.294;2023-07-13T01:12:24;4.38;;;2.42;;
18818;SDS011;9537;45.594;9.294;2023-07-13T01:13:24;5.55;;;2.58;;
18818;SDS011;9537;45.594;9.294;2023-07-13T01:14:26;4.70;;;2.47;;
18818;SDS011;9537;45.594;9.294;2023-07-13T01:15:37;3.50;;;2.50;;
18818;SDS011;9537;45.594;9.294;2023-07-13T01:16:41;5.38;;;2.15;;
18818;SDS011;9537;45.594;9.294;2023-07-13T01:17:43;5.60;;;2.38;;
18818;SDS011;9537;45.594;9.294;2023-07-13T01:18:45;3.85;;;3.10;;
18818;SDS011;9537;45.594;9.294;2023-07-13T01:19:46;5.72;;;2.30;;
18818;SDS011;9537;45.594;9.294;2023-07-13T01:20:52;4.03;;;2.40;;
18818;SDS011;9537;45.594;9.294;2023-07-13T01:21:54;4.22;;;2.35;;
18818;SDS011;9537;45.594;9.294;2023-07-13T01:22:55;4.82;;;2.72;;
18818;SDS011;9537;45.594;9.294;2023-07-13T01:23:56;4.05;;;2.47;;
18818;SDS011;9537;45.594;9.294;2023-07-13T01:24:58;5.53;;;2.83;;
18818;SDS011;9537;45.594;9.294;2023-07-13T01:26:00;5.57;;;2.42;;
18818;SDS011;9537;45.594;9.294;2023-07-13T01:27:02;5.60;;;2.95;;
18818;SDS011;9537;45.594;9.294;2023-07-13T01:28:03;4.72;;;2.60;;
18818;SDS011;9537;45.594;9.294;2023-07-13T01:29:06;5.00;;;2.67;;
18818;SDS011;9537;45.594;9.294;2023-07-13T01:30:08;6.65;;;2.25;;
18818;SDS011;9537;45.594;9.294;2023-07-13T01:31:11;6.25;;;2.53;;
18818;SDS011;9537;45.594;9.294;2023-07-13T01:32:12;7.65;;;2.53;;
18818;SDS011;9537;45.594;9.294;2023-07-13T01:33:22;4.07;;;2.30;;
18818;SDS011;9537;45.594;9.294;2023-07-13T01:34:24;3.38;;;2.10;;
18818;SDS011;9537;45.594;9.294;2023-07-13T01:35:25;6.47;;;2.63;;
18818;SDS011;9537;45.594;9.294;2023-07-13T01:36:28;2.72;;;2.28;;
18818;SDS011;9537;45.594;9.294;2023-07-13T01:37:30;3.15;;;2.20;;
18818;SDS011;9537;45.594;9.294;2023-07-13T01:38:33;6.97;;;2.30;;
18818;SDS011;9537;45.594;9.294;2023-07-13T01:39:35;3.85;;;2.30;;
18818;SDS011;9537;45.594;9.294;2023-07-13T01:40:37;3.53;;;2.15;;
18818;SDS011;9537;45.594;9.294;2023-07-13T01:41:40;3.60;;;2.38;;
18818;SDS011;9537;45.594;9.294;2023-07-13T01:42:41;4.85;;;2.75;;
18818;SDS011;9537;45.594;9.294;2023-07-13T01:43:43;6.47;;;2.58;;
18818;SDS011;9537;45.594;9.294;2023-07-13T01:44:43;3.70;;;2.22;;
18818;SDS011;9537;45.594;9.294;2023-07-13T01:45:45;4.88;;;2.28;;
18818;SDS011;9537;45.594;9.294;2023-07-13T01:46:46;5.40;;;2.33;;
18818;SDS011;9537;45.594;9.294;2023-07-13T01:47:47;3.00;;;2.55;;
18818;SDS011;9537;45.594;9.294;2023-07-13T01:48:48;3.63;;;2.83;;
18818;SDS011;9537;45.594;9.294;2023-07-13T01:49:50;5.60;;;2.13;;
18818;SDS011;9537;45.594;9.294;2023-07-13T01:50:52;5.53;;;2.78;;
18818;SDS011;9537;45.594;9.294;2023-07-13T01:51:55;4.28;;;2.88;;
18818;SDS011;9537;45.594;9.294;2023-07-13T01:52:55;5.30;;;2.47;;
18818;SDS011;9537;45.594;9.294;2023-07-13T01:53:57;6.32;;;2.42;;
18818;SDS011;9537;45.594;9.294;2023-07-13T01:54:58;3.95;;;2.60;;
18818;SDS011;9537;45.594;9.294;2023-07-13T01:56:00;9.95;;;2.60;;
18818;SDS011;9537;45.594;9.294;2023-07-13T01:57:00;5.85;;;2.70;;
18818;SDS011;9537;45.594;9.294;2023-07-13T01:58:03;5.47;;;2.67;;
18818;SDS011;9537;45.594;9.294;2023-07-13T01:59:04;5.00;;;2.40;;
18818;SDS011;9537;45.594;9.294;2023-07-13T02:00:08;4.30;;;2.40;;
18818;SDS011;9537;45.594;9.294;2023-07-13T02:01:10;4.03;;;2.33;;
18818;SDS011;9537;45.594;9.294;2023-07-13T02:02:12;4.82;;;2.42;;
18818;SDS011;9537;45.594;9.294;2023-07-13T02:03:12;4.13;;;2.20;;
18818;SDS011;9537;45.594;9.294;2023-07-13T02:04:18;6.55;;;3.25;;
18818;SDS011;9537;45.594;9.294;2023-07-13T02:05:18;3.85;;;2.35;;
18818;SDS011;9537;45.594;9.294;2023-07-13T02:06:21;4.85;;;2.35;;
18818;SDS011;9537;45.594;9.294;2023-07-13T02:07:23;3.33;;;2.30;;
18818;SDS011;9537;45.594;9.294;2023-07-13T02:08:25;5.05;;;2.50;;
18818;SDS011;9537;45.594;9.294;2023-07-13T02:09:25;3.17;;;2.53;;
18818;SDS011;9537;45.594;9.294;2023-07-13T02:10:27;5.18;;;2.20;;
18818;SDS011;9537;45.594;9.294;2023-07-13T02:11:28;4.25;;;2.35;;
18818;SDS011;9537;45.594;9.294;2023-07-13T02:12:33;5.15;;;2.63;;
18818;SDS011;9537;45.594;9.294;2023-07-13T02:13:33;2.78;;;2.10;;
18818;SDS011;9537;45.594;9.294;2023-07-13T02:14:35;3.38;;;2.35;;
18818;SDS011;9537;45.594;9.294;2023-07-13T02:15:38;4.38;;;2.33;;
18818;SDS011;9537;45.594;9.294;2023-07-13T02:16:41;3.42;;;2.47;;
18818;SDS011;9537;45.594;9.294;2023-07-13T02:17:42;3.55;;;2.38;;
18818;SDS011;9537;45.594;9.294;2023-07-13T02:18:43;7.13;;;2.63;;
18818;SDS011;9537;45.594;9.294;2023-07-13T02:19:44;6.28;;;2.70;;
18818;SDS011;9537;45.594;9.294;2023-07-13T02:20:46;5.57;;;2.38;;
18818;SDS011;9537;45.594;9.294;2023-07-13T02:21:46;4.95;;;2.30;;
18818;SDS011;9537;45.594;9.294;2023-07-13T02:22:50;5.80;;;2.13;;
18818;SDS011;9537;45.594;9.294;2023-07-13T02:23:50;5.00;;;2.35;;
18818;SDS011;9537;45.594;9.294;2023-07-13T02:24:52;3.70;;;2.47;;
18818;SDS011;9537;45.594;9.294;2023-07-13T02:25:54;5.93;;;2.60;;
18818;SDS011;9537;45.594;9.294;2023-07-13T02:26:56;3.65;;;2.50;;
18818;SDS011;9537;45.594;9.294;2023-07-13T02:27:57;4.68;;;2.45;;
18818;SDS011;9537;45.594;9.294;2023-07-13T02:28:59;6.78;;;2.53;;
18818;SDS011;9537;45.594;9.294;2023-07-13T02:30:00;3.83;;;2.10;;
18818;SDS011;9537;45.594;9.294;2023-07-13T02:31:05;3.97;;;2.42;;
18818;SDS011;9537;45.594;9.294;2023-07-13T02:32:07;11.25;;;2.70;;
18818;SDS011;9537;45.594;9.294;2023-07-13T02:33:11;5.70;;;2.20;;
18818;SDS011;9537;45.594;9.294;2023-07-13T02:34:11;4.07;;;2.40;;
18818;SDS011;9537;45.594;9.294;2023-07-13T02:35:13;5.20;;;2.45;;
18818;SDS011;9537;45.594;9.294;2023-07-13T02:36:14;5.85;;;2.67;;
18818;SDS011;9537;45.594;9.294;2023-07-13T02:37:18;4.18;;;2.55;;
18818;SDS011;9537;45.594;9.294;2023-07-13T02:38:20;8.63;;;2.30;;
18818;SDS011;9537;45.594;9.294;2023-07-13T02:39:22;7.63;;;2.45;;
18818;SDS011;9537;45.594;9.294;2023-07-13T02:40:23;5.03;;;2.85;;
18818;SDS011;9537;45.594;9.294;2023-07-13T02:41:25;6.70;;;2.67;;
18818;SDS011;9537;45.594;9.294;2023-07-13T02:42:25;4.60;;;2.38;;
18818;SDS011;9537;45.594;9.294;2023-07-13T02:43:27;4.20;;;2.33;;
18818;SDS011;9537;45.594;9.294;2023-07-13T02:44:28;4.88;;;2.35;;
18818;SDS011;9537;45.594;9.294;2023-07-13T02:45:30;6.55;;;2.65;;
18818;SDS011;9537;45.594;9.294;2023-07-13T02:46:31;3.70;;;2.60;;
18818;SDS011;9537;45.594;9.294;2023-07-13T02:47:33;5.28;;;3.33;;
18818;SDS011;9537;45.594;9.294;2023-07-13T02:48:35;3.88;;;2.40;;
18818;SDS011;9537;45.594;9.294;2023-07-13T02:49:36;2.92;;;2.17;;
18818;SDS011;9537;45.594;9.294;2023-07-13T02:50:38;7.93;;;2.60;;
18818;SDS011;9537;45.594;9.294;2023-07-13T02:51:39;5.38;;;2.50;;
18818;SDS011;9537;45.594;9.294;2023-07-13T02:52:40;6.85;;;2.42;;
18818;SDS011;9537;45.594;9.294;2023-07-13T02:53:43;5.18;;;3.00;;
18818;SDS011;9537;45.594;9.294;2023-07-13T02:54:43;5.72;;;2.42;;
18818;SDS011;9537;45.594;9.294;2023-07-13T02:55:45;5.57;;;2.78;;
18818;SDS011;9537;45.594;9.294;2023-07-13T02:56:47;6.82;;;2.95;;
18818;SDS011;9537;45.594;9.294;2023-07-13T02:57:48;6.50;;;2.80;;
18818;SDS011;9537;45.594;9.294;2023-07-13T02:58:50;6.63;;;2.30;;
18818;SDS011;9537;45.594;9.294;2023-07-13T02:59:51;4.32;;;2.58;;
18818;SDS011;9537;45.594;9.294;2023-07-13T03:00:53;7.90;;;2.25;;
18818;SDS011;9537;45.594;9.294;2023-07-13T03:01:53;5.13;;;2.95;;
18818;SDS011;9537;45.594;9.294;2023-07-13T03:02:54;4.05;;;2.50;;
18818;SDS011;9537;45.594;9.294;2023-07-13T03:03:58;6.50;;;2.40;;
18818;SDS011;9537;45.594;9.294;2023-07-13T03:04:59;6.00;;;2.50;;
18818;SDS011;9537;45.594;9.294;2023-07-13T03:06:00;4.60;;;2.25;;
18818;SDS011;9537;45.594;9.294;2023-07-13T03:07:03;4.20;;;2.70;;
18818;SDS011;9537;45.594;9.294;2023-07-13T03:08:04;4.40;;;2.58;;
18818;SDS011;9537;45.594;9.294;2023-07-13T03:09:08;3.28;;;2.17;;
18818;SDS011;9537;45.594;9.294;2023-07-13T03:10:09;4.65;;;2.55;;
18818;SDS011;9537;45.594;9.294;2023-07-13T03:11:12;5.18;;;2.40;;
18818;SDS011;9537;45.594;9.294;2023-07-13T03:12:14;3.78;;;2.22;;
18818;SDS011;9537;45.594;9.294;2023-07-13T03:13:16;6.97;;;2.42;;
18818;SDS011;9537;45.594;9.294;2023-07-13T03:14:16;4.05;;;2.28;;
18818;SDS011;9537;45.594;9.294;2023-07-13T03:15:18;6.05;;;2.30;;
18818;SDS011;9537;45.594;9.294;2023-07-13T03:16:19;5.30;;;3.17;;
18818;SDS011;9537;45.594;9.294;2023-07-13T03:17:20;5.88;;;2.55;;
18818;SDS011;9537;45.594;9.294;2023-07-13T03:18:22;5.15;;;2.60;;
18818;SDS011;9537;45.594;9.294;2023-07-13T03:19:24;5.28;;;2.70;;
18818;SDS011;9537;45.594;9.294;2023-07-13T03:20:25;4.65;;;2.75;;
18818;SDS011;9537;45.594;9.294;2023-07-13T03:21:26;5.57;;;2.45;;
18818;SDS011;9537;45.594;9.294;2023-07-13T03:22:28;8.65;;;2.45;;
18818;SDS011;9537;45.594;9.294;2023-07-13T03:23:29;6.20;;;2.78;;
18818;SDS011;9537;45.594;9.294;2023-07-13T03:24:33;6.40;;;3.03;;
18818;SDS011;9537;45.594;9.294;2023-07-13T03:25:34;3.70;;;2.40;;
18818;SDS011;9537;45.594;9.294;2023-07-13T03:26:36;4.55;;;2.60;;
18818;SDS011;9537;45.594;9.294;2023-07-13T03:27:36;5.03;;;3.28;;
18818;SDS011;9537;45.594;9.294;2023-07-13T03:28:38;3.65;;;2.72;;
18818;SDS011;9537;45.594;9.294;2023-07-13T03:29:39;5.97;;;2.88;;
18818;SDS011;9537;45.594;9.294;2023-07-13T03:30:41;5.93;;;3.58;;
18818;SDS011;9537;45.594;9.294;2023-07-13T03:31:42;4.25;;;2.80;;
18818;SDS011;9537;45.594;9.294;2023-07-13T03:32:43;4.05;;;2.83;;
18818;SDS011;9537;45.594;9.294;2023-07-13T03:33:44;8.10;;;4.00;;
18818;SDS011;9537;45.594;9.294;2023-07-13T03:34:46;5.78;;;3.20;;
18818;SDS011;9537;45.594;9.294;2023-07-13T03:35:47;7.40;;;3.90;;
18818;SDS011;9537;45.594;9.294;2023-07-13T03:36:47;7.75;;;3.20;;
18818;SDS011;9537;45.594;9.294;2023-07-13T03:37:49;6.97;;;3.55;;
18818;SDS011;9537;45.594;9.294;2023-07-13T03:38:52;5.60;;;3.35;;
18818;SDS011;9537;45.594;9.294;2023-07-13T03:39:56;10.55;;;4.38;;
18818;SDS011;9537;45.594;9.294;2023-07-13T03:40:57;6.57;;;3.40;;
18818;SDS011;9537;45.594;9.294;2023-07-13T03:41:59;7.50;;;4.05;;
18818;SDS011;9537;45.594;9.294;2023-07-13T03:43:00;6.40;;;3.47;;
18818;SDS011;9537;45.594;9.294;2023-07-13T03:44:02;5.75;;;3.80;;
18818;SDS011;9537;45.594;9.294;2023-07-13T03:45:04;5.63;;;3.70;;
18818;SDS011;9537;45.594;9.294;2023-07-13T03:46:06;5.07;;;3.50;;
18818;SDS011;9537;45.594;9.294;2023-07-13T03:47:07;5.47;;;3.42;;
18818;SDS011;9537;45.594;9.294;2023-07-13T03:48:09;5.22;;;3.22;;
18818;SDS011;9537;45.594;9.294;2023-07-13T03:49:10;6.13;;;3.70;;
18818;SDS011;9537;45.594;9.294;2023-07-13T03:50:12;4.57;;;3.50;;
18818;SDS011;9537;45.594;9.294;2023-07-13T03:51:13;6.32;;;3.72;;
18818;SDS011;9537;45.594;9.294;2023-07-13T03:52:16;5.90;;;3.80;;
18818;SDS011;9537;45.594;9.294;2023-07-13T03:53:17;4.75;;;3.28;;
18818;SDS011;9537;45.594;9.294;2023-07-13T03:54:19;5.93;;;3.75;;
18818;SDS011;9537;45.594;9.294;2023-07-13T03:55:22;5.43;;;4.07;;
18818;SDS011;9537;45.594;9.294;2023-07-13T03:56:23;4.15;;;3.40;;
18818;SDS011;9537;45.594;9.294;2023-07-13T03:57:25;5.30;;;3.40;;
18818;SDS011;9537;45.594;9.294;2023-07-13T03:58:27;5.07;;;3.60;;
18818;SDS011;9537;45.594;9.294;2023-07-13T03:59:30;5.18;;;2.90;;
18818;SDS011;9537;45.594;9.294;2023-07-13T04:00:32;4.65;;;3.78;;
18818;SDS011;9537;45.594;9.294;2023-07-13T04:01:33;5.57;;;3.10;;
18818;SDS011;9537;45.594;9.294;2023-07-13T04:02:35;4.07;;;3.30;;
18818;SDS011;9537;45.594;9.294;2023-07-13T04:03:37;3.28;;;2.70;;
18818;SDS011;9537;45.594;9.294;2023-07-13T04:04:38;5.68;;;3.10;;
18818;SDS011;9537;45.594;9.294;2023-07-13T04:05:41;6.55;;;3.15;;
18818;SDS011;9537;45.594;9.294;2023-07-13T04:06:41;8.20;;;3.65;;
18818;SDS011;9537;45.594;9.294;2023-07-13T04:07:43;3.45;;;3.10;;
18818;SDS011;9537;45.594;9.294;2023-07-13T04:08:44;7.30;;;3.17;;
18818;SDS011;9537;45.594;9.294;2023-07-13T04:09:44;4.72;;;3.22;;
18818;SDS011;9537;45.594;9.294;2023-07-13T04:10:47;6.68;;;3.45;;
18818;SDS011;9537;45.594;9.294;2023-07-13T04:11:48;4.38;;;3.00;;
18818;SDS011;9537;45.594;9.294;2023-07-13T04:12:50;3.47;;;2.70;;
18818;SDS011;9537;45.594;9.294;2023-07-13T04:13:50;4.97;;;3.05;;
18818;SDS011;9537;45.594;9.294;2023-07-13T04:14:53;5.43;;;3.05;;
18818;SDS011;9537;45.594;9.294;2023-07-13T04:15:54;9.07;;;3.15;;
18818;SDS011;9537;45.594;9.294;2023-07-13T04:16:56;4.85;;;3.08;;
18818;SDS011;9537;45.594;9.294;2023-07-13T04:17:57;5.40;;;3.28;;
18818;SDS011;9537;45.594;9.294;2023-07-13T04:18:59;4.57;;;3.17;;
18818;SDS011;9537;45.594;9.294;2023-07-13T04:20:00;5.65;;;3.25;;
18818;SDS011;9537;45.594;9.294;2023-07-13T04:21:02;4.50;;;3.33;;
18818;SDS011;9537;45.594;9.294;2023-07-13T04:22:03;4.65;;;3.15;;
18818;SDS011;9537;45.594;9.294;2023-07-13T04:23:05;3.92;;;2.85;;
18818;SDS011;9537;45.594;9.294;2023-07-13T04:24:06;6.25;;;3.05;;
18818;SDS011;9537;45.594;9.294;2023-07-13T04:25:08;3.65;;;3.20;;
18818;SDS011;9537;45.594;9.294;2023-07-13T04:26:11;5.38;;;3.65;;
18818;SDS011;9537;45.594;9.294;2023-07-13T04:27:12;3.85;;;2.88;;
18818;SDS011;9537;45.594;9.294;2023-07-13T04:28:13;7.65;;;3.75;;
18818;SDS011;9537;45.594;9.294;2023-07-13T04:29:15;5.80;;;3.53;;
18818;SDS011;9537;45.594;9.294;2023-07-13T04:30:16;7.10;;;3.95;;
18818;SDS011;9537;45.594;9.294;2023-07-13T04:31:18;8.25;;;4.07;;
18818;SDS011;9537;45.594;9.294;2023-07-13T04:32:21;6.78;;;3.85;;
18818;SDS011;9537;45.594;9.294;2023-07-13T04:33:23;6.38;;;3.63;;
18818;SDS011;9537;45.594;9.294;2023-07-13T04:34:24;4.30;;;3.53;;
18818;SDS011;9537;45.594;9.294;2023-07-13T04:35:26;6.15;;;3.60;;
18818;SDS011;9537;45.594;9.294;2023-07-13T04:36:27;5.22;;;3.22;;
18818;SDS011;9537;45.594;9.294;2023-07-13T04:37:29;8.75;;;3.72;;
18818;SDS011;9537;45.594;9.294;2023-07-13T04:38:31;6.95;;;3.53;;
18818;SDS011;9537;45.594;9.294;2023-07-13T04:39:33;5.88;;;3.35;;
18818;SDS011;9537;45.594;9.294;2023-07-13T04:40:34;5.35;;;3.92;;
18818;SDS011;9537;45.594;9.294;2023-07-13T04:41:37;7.85;;;3.88;;
18818;SDS011;9537;45.594;9.294;2023-07-13T04:42:38;4.78;;;3.38;;
18818;SDS011;9537;45.594;9.294;2023-07-13T04:43:39;7.43;;;3.33;;
18818;SDS011;9537;45.594;9.294;2023-07-13T04:44:40;9.25;;;3.63;;
18818;SDS011;9537;45.594;9.294;2023-07-13T04:45:41;4.50;;;3.20;;
18818;SDS011;9537;45.594;9.294;2023-07-13T04:46:42;6.53;;;3.63;;
18818;SDS011;9537;45.594;9.294;2023-07-13T04:47:43;4.35;;;2.95;;
18818;SDS011;9537;45.594;9.294;2023-07-13T04:48:44;8.38;;;3.75;;
18818;SDS011;9537;45.594;9.294;2023-07-13T04:49:46;4.75;;;3.40;;
18818;SDS011;9537;45.594;9.294;2023-07-13T04:50:47;6.20;;;3.67;;
18818;SDS011;9537;45.594;9.294;2023-07-13T04:51:48;5.63;;;2.92;;
18818;SDS011;9537;45.594;9.294;2023-07-13T04:52:50;4.20;;;3.50;;
18818;SDS011;9537;45.594;9.294;2023-07-13T04:53:50;4.28;;;3.60;;
18818;SDS011;9537;45.594;9.294;2023-07-13T04:54:52;5.32;;;3.80;;
18818;SDS011;9537;45.594;9.294;2023-07-13T04:55:53;5.47;;;3.72;;
18818;SDS011;9537;45.594;9.294;2023-07-13T04:56:56;10.48;;;3.60;;
18818;SDS011;9537;45.594;9.294;2023-07-13T04:57:57;10.02;;;4.07;;
18818;SDS011;9537;45.594;9.294;2023-07-13T04:58:59;6.00;;;3.45;;
18818;SDS011;9537;45.594;9.294;2023-07-13T05:00:00;7.05;;;3.38;;
18818;SDS011;9537;45.594;9.294;2023-07-13T05:01:07;5.70;;;3.60;;
18818;SDS011;9537;45.594;9.294;2023-07-13T05:02:09;8.10;;;3.55;;
18818;SDS011;9537;45.594;9.294;2023-07-13T05:03:11;7.88;;;3.53;;
18818;SDS011;9537;45.594;9.294;2023-07-13T05:04:11;9.05;;;3.72;;
18818;SDS011;9537;45.594;9.294;2023-07-13T05:05:13;5.82;;;3.40;;
18818;SDS011;9537;45.594;9.294;2023-07-13T05:06:14;9.52;;;3.92;;
18818;SDS011;9537;45.594;9.294;2023-07-13T05:07:15;6.55;;;3.63;;
18818;SDS011;9537;45.594;9.294;2023-07-13T05:08:17;8.88;;;3.90;;
18818;SDS011;9537;45.594;9.294;2023-07-13T05:09:17;8.10;;;3.47;;
18818;SDS011;9537;45.594;9.294;2023-07-13T05:10:19;5.43;;;3.63;;
18818;SDS011;9537;45.594;9.294;2023-07-13T05:11:20;5.07;;;3.70;;
18818;SDS011;9537;45.594;9.294;2023-07-13T05:12:23;6.13;;;3.65;;
18818;SDS011;9537;45.594;9.294;2023-07-13T05:13:24;9.63;;;4.30;;
18818;SDS011;9537;45.594;9.294;2023-07-13T05:14:27;6.75;;;4.05;;
18818;SDS011;9537;45.594;9.294;2023-07-13T05:15:28;5.65;;;3.85;;
18818;SDS011;9537;45.594;9.294;2023-07-13T05:16:30;8.55;;;4.10;;
18818;SDS011;9537;45.594;9.294;2023-07-13T05:17:32;8.85;;;4.75;;
18818;SDS011;9537;45.594;9.294;2023-07-13T05:18:34;10.15;;;4.50;;
18818;SDS011;9537;45.594;9.294;2023-07-13T05:19:37;7.07;;;4.25;;
18818;SDS011;9537;45.594;9.294;2023-07-13T05:20:39;11.63;;;5.53;;
18818;SDS011;9537;45.594;9.294;2023-07-13T05:21:40;12.18;;;5.13;;
18818;SDS011;9537;45.594;9.294;2023-07-13T05:22:42;12.98;;;5.25;;
18818;SDS011;9537;45.594;9.294;2023-07-13T05:23:43;7.68;;;4.13;;
18818;SDS011;9537;45.594;9.294;2023-07-13T05:24:45;6.45;;;3.83;;
18818;SDS011;9537;45.594;9.294;2023-07-13T05:25:45;8.27;;;4.15;;
18818;SDS011;9537;45.594;9.294;2023-07-13T05:26:47;6.45;;;3.67;;
18818;SDS011;9537;45.594;9.294;2023-07-13T05:27:49;6.10;;;3.58;;
18818;SDS011;9537;45.594;9.294;2023-07-13T05:28:51;7.53;;;4.15;;
18818;SDS011;9537;45.594;9.294;2023-07-13T05:29:52;6.80;;;3.10;;
18818;SDS011;9537;45.594;9.294;2023-07-13T05:30:54;7.22;;;3.45;;
18818;SDS011;9537;45.594;9.294;2023-07-13T05:31:55;7.88;;;3.55;;
18818;SDS011;9537;45.594;9.294;2023-07-13T05:32:57;6.13;;;4.47;;
18818;SDS011;9537;45.594;9.294;2023-07-13T05:33:57;6.95;;;3.80;;
18818;SDS011;9537;45.594;9.294;2023-07-13T05:34:59;4.70;;;3.20;;
18818;SDS011;9537;45.594;9.294;2023-07-13T05:36:00;5.53;;;3.80;;
18818;SDS011;9537;45.594;9.294;2023-07-13T05:37:01;5.18;;;3.30;;
18818;SDS011;9537;45.594;9.294;2023-07-13T05:38:02;6.00;;;3.45;;
18818;SDS011;9537;45.594;9.294;2023-07-13T05:39:04;13.55;;;5.07;;
18818;SDS011;9537;45.594;9.294;2023-07-13T05:40:05;5.65;;;3.60;;
18818;SDS011;9537;45.594;9.294;2023-07-13T05:41:08;6.28;;;3.28;;
18818;SDS011;9537;45.594;9.294;2023-07-13T05:42:09;5.30;;;3.22;;
18818;SDS011;9537;45.594;9.294;2023-07-13T05:43:12;5.93;;;3.22;;
18818;SDS011;9537;45.594;9.294;2023-07-13T05:44:13;6.43;;;3.63;;
18818;SDS011;9537;45.594;9.294;2023-07-13T05:45:15;5.35;;;3.25;;
18818;SDS011;9537;45.594;9.294;2023-07-13T05:46:16;16.20;;;3.40;;
18818;SDS011;9537;45.594;9.294;2023-07-13T05:47:17;6.10;;;2.97;;
18818;SDS011;9537;45.594;9.294;2023-07-13T05:48:18;6.68;;;3.30;;
18818;SDS011;9537;45.594;9.294;2023-07-13T05:49:25;7.68;;;3.80;;
18818;SDS011;9537;45.594;9.294;2023-07-13T05:50:26;9.10;;;3.60;;
18818;SDS011;9537;45.594;9.294;2023-07-13T05:51:26;7.78;;;3.55;;
18818;SDS011;9537;45.594;9.294;2023-07-13T05:52:28;7.30;;;3.22;;
18818;SDS011;9537;45.594;9.294;2023-07-13T05:53:29;6.20;;;3.10;;
18818;SDS011;9537;45.594;9.294;2023-07-13T05:54:31;5.95;;;2.80;;
18818;SDS011;9537;45.594;9.294;2023-07-13T05:55:32;4.55;;;2.88;;
18818;SDS011;9537;45.594;9.294;2023-07-13T05:56:34;5.20;;;2.83;;
18818;SDS011;9537;45.594;9.294;2023-07-13T05:57:34;8.85;;;3.08;;
18818;SDS011;9537;45.594;9.294;2023-07-13T05:58:38;5.18;;;2.90;;
18818;SDS011;9537;45.594;9.294;2023-07-13T05:59:38;6.43;;;3.20;;
18818;SDS011;9537;45.594;9.294;2023-07-13T06:00:40;6.47;;;3.00;;
18818;SDS011;9537;45.594;9.294;2023-07-13T06:01:41;5.05;;;3.20;;
18818;SDS011;9537;45.594;9.294;2023-07-13T06:02:43;6.43;;;3.30;;
18818;SDS011;9537;45.594;9.294;2023-07-13T06:03:43;6.20;;;3.47;;
18818;SDS011;9537;45.594;9.294;2023-07-13T06:04:45;10.50;;;3.42;;
18818;SDS011;9537;45.594;9.294;2023-07-13T06:05:46;5.47;;;3.45;;
18818;SDS011;9537;45.594;9.294;2023-07-13T06:06:47;5.97;;;3.63;;
18818;SDS011;9537;45.594;9.294;2023-07-13T06:07:48;9.38;;;3.95;;
18818;SDS011;9537;45.594;9.294;2023-07-13T06:08:50;9.15;;;3.50;;
18818;SDS011;9537;45.594;9.294;2023-07-13T06:09:50;6.70;;;3.40;;
18818;SDS011;9537;45.594;9.294;2023-07-13T06:10:52;5.22;;;3.17;;
18818;SDS011;9537;45.594;9.294;2023-07-13T06:11:53;7.82;;;3.60;;
18818;SDS011;9537;45.594;9.294;2023-07-13T06:12:55;7.15;;;3.78;;
18818;SDS011;9537;45.594;9.294;2023-07-13T06:13:57;8.70;;;3.70;;
18818;SDS011;9537;45.594;9.294;2023-07-13T06:14:59;7.85;;;3.67;;
18818;SDS011;9537;45.594;9.294;2023-07-13T06:16:00;6.47;;;3.45;;
18818;SDS011;9537;45.594;9.294;2023-07-13T06:17:04;7.85;;;4.00;;
18818;SDS011;9537;45.594;9.294;2023-07-13T06:18:06;8.88;;;4.20;;